createdAt,value
2022-12-22T00:00:36.189Z,12.80
2022-12-22T00:05:55.505Z,13.30
2022-12-22T00:11:14.526Z,13.55
2022-12-22T00:16:33.342Z,13.80
2022-12-22T00:21:52.668Z,12.80
2022-12-22T00:27:10.749Z,12.65
2022-12-22T00:32:32.757Z,13.50
2022-12-22T00:37:54.441Z,13.82
2022-12-22T00:43:12.650Z,13.88
2022-12-22T00:48:40.735Z,13.48
2022-12-22T00:54:00.282Z,13.27
2022-12-22T00:59:19.408Z,12.45
2022-12-22T01:04:37.859Z,12.35
2022-12-22T01:09:57.211Z,13.25
2022-12-22T01:15:15.611Z,13.13
2022-12-22T01:20:34.267Z,12.75
2022-12-22T01:25:53.856Z,12.00
2022-12-22T01:31:11.991Z,12.27
2022-12-22T01:36:30.335Z,11.77
2022-12-22T01:41:49.924Z,12.52
2022-12-22T01:47:08.044Z,12.02
2022-12-22T01:52:27.140Z,11.43
2022-12-22T01:57:48.176Z,10.88
2022-12-22T02:03:07.689Z,11.60
2022-12-22T02:08:35.984Z,10.85
2022-12-22T02:14:03.517Z,11.68
2022-12-22T02:19:33.400Z,12.02
2022-12-22T02:24:57.920Z,11.55
2022-12-22T02:30:21.422Z,11.02
2022-12-22T02:35:39.903Z,10.90
2022-12-22T02:41:08.442Z,11.48
2022-12-22T02:46:36.633Z,11.25
2022-12-22T02:52:00.331Z,12.57
2022-12-22T02:57:21.773Z,12.23
2022-12-22T03:02:41.316Z,12.27
2022-12-22T03:08:04.462Z,12.88
2022-12-22T03:13:26.395Z,11.00
2022-12-22T03:18:45.827Z,12.05
2022-12-22T03:24:04.405Z,12.68
2022-12-22T03:29:05.044Z,11.43
2022-12-22T03:34:07.096Z,12.35
2022-12-22T03:39:08.011Z,12.80
2022-12-22T03:44:26.229Z,12.65
2022-12-22T03:49:28.277Z,12.70
2022-12-22T03:54:28.937Z,13.38
2022-12-22T03:59:29.583Z,12.65
2022-12-22T04:04:31.565Z,13.00
2022-12-22T04:09:32.261Z,12.57
2022-12-22T04:14:34.519Z,12.40
2022-12-22T04:19:36.903Z,12.93
2022-12-22T04:24:37.559Z,11.65
2022-12-22T04:29:38.184Z,13.57
2022-12-22T04:34:40.152Z,12.98
2022-12-22T04:39:40.800Z,13.40
2022-12-22T04:44:41.420Z,12.80
2022-12-22T04:49:43.570Z,13.05
2022-12-22T04:54:44.227Z,12.88
2022-12-22T04:59:44.876Z,12.18
2022-12-22T05:04:46.868Z,13.07
2022-12-22T05:09:47.519Z,13.00
2022-12-22T05:14:48.165Z,14.55
2022-12-22T05:19:50.169Z,13.18
2022-12-22T05:24:50.873Z,13.48
2022-12-22T05:29:51.537Z,11.73
2022-12-22T05:34:53.536Z,12.40
2022-12-22T05:39:54.202Z,11.20
2022-12-22T05:44:54.852Z,12.23
2022-12-22T05:49:56.840Z,12.75
2022-12-22T05:54:57.490Z,13.40
2022-12-22T05:59:58.128Z,12.82
2022-12-22T06:05:00.121Z,11.52
2022-12-22T06:10:02.824Z,12.10
2022-12-22T06:15:10.142Z,12.07
2022-12-22T06:20:13.457Z,12.48
2022-12-22T06:25:18.734Z,12.00
2022-12-22T06:30:19.883Z,11.05
2022-12-22T06:35:22.004Z,12.00
2022-12-22T06:40:22.800Z,12.13
2022-12-22T06:45:23.510Z,11.95
2022-12-22T06:50:25.567Z,12.00
2022-12-22T06:55:26.300Z,12.20
2022-12-22T07:00:27.065Z,12.50
2022-12-22T07:05:30.482Z,12.02
2022-12-22T07:10:49.016Z,12.38
2022-12-22T07:15:59.227Z,10.98
2022-12-22T07:21:04.065Z,10.73
2022-12-22T07:26:06.103Z,11.70
2022-12-22T07:31:07.484Z,10.93
2022-12-22T07:36:13.015Z,9.75
2022-12-22T07:41:33.350Z,9.57
2022-12-22T07:46:36.551Z,10.00
2022-12-22T07:51:40.835Z,9.10
2022-12-22T07:56:42.673Z,9.55
2022-12-22T08:01:43.500Z,9.80
2022-12-22T08:06:45.972Z,9.77
2022-12-22T08:11:46.642Z,9.40
2022-12-22T08:16:47.334Z,9.60
2022-12-22T08:21:53.001Z,8.80
2022-12-22T08:26:58.585Z,10.25
2022-12-22T08:31:59.496Z,8.68
2022-12-22T08:37:03.989Z,9.23
2022-12-22T08:42:06.621Z,8.65
2022-12-22T08:47:12.987Z,8.30
2022-12-22T08:52:19.054Z,8.48
2022-12-22T08:57:20.063Z,8.55
2022-12-22T09:02:20.854Z,8.30
2022-12-22T09:07:22.930Z,8.00
2022-12-22T09:12:23.589Z,7.53
2022-12-22T09:17:24.345Z,6.68
2022-12-22T09:22:28.643Z,7.45
2022-12-22T09:27:31.157Z,7.43
2022-12-22T09:32:31.900Z,6.38
2022-12-22T09:37:33.882Z,6.45
2022-12-22T09:42:36.378Z,6.95
2022-12-22T09:47:40.277Z,6.05
2022-12-22T09:52:47.467Z,6.00
2022-12-22T09:57:48.745Z,6.43
2022-12-22T10:03:00.906Z,6.43
2022-12-22T10:08:04.060Z,6.03
2022-12-22T10:13:06.157Z,5.53
2022-12-22T10:18:12.063Z,5.47
2022-12-22T10:23:19.405Z,5.13
2022-12-22T10:28:23.632Z,5.07
2022-12-22T10:33:24.273Z,4.40
2022-12-22T10:38:29.454Z,5.15
2022-12-22T10:43:32.711Z,7.38
2022-12-22T10:48:36.759Z,5.65
2022-12-22T10:53:47.968Z,5.38
2022-12-22T10:58:50.952Z,5.13
2022-12-22T11:03:51.880Z,5.22
2022-12-22T11:08:58.165Z,5.32
2022-12-22T11:14:21.085Z,4.80
2022-12-22T11:19:46.800Z,4.68
2022-12-22T11:25:01.381Z,4.22
2022-12-22T11:30:08.828Z,4.38
2022-12-22T11:35:15.260Z,3.97
2022-12-22T11:40:29.185Z,2.15
2022-12-22T11:45:44.357Z,1.60
2022-12-22T11:51:00.180Z,2.10
2022-12-22T11:56:22.732Z,3.55
2022-12-22T12:01:39.608Z,3.28
2022-12-22T12:07:00.048Z,3.53
2022-12-22T12:12:10.894Z,3.15
2022-12-22T12:17:26.441Z,3.38
2022-12-22T12:22:40.918Z,3.58
2022-12-22T12:27:55.202Z,3.85
2022-12-22T12:33:01.351Z,3.35
2022-12-22T12:38:06.895Z,3.53
2022-12-22T12:43:16.243Z,2.67
2022-12-22T12:48:40.360Z,2.60
2022-12-22T12:54:18.692Z,1.13
2022-12-22T12:59:47.138Z,0.93
2022-12-22T13:05:33.326Z,0.68
2022-12-22T13:10:35.577Z,0.73
2022-12-22T13:15:40.192Z,0.45
2022-12-22T13:20:41.057Z,0.60
2022-12-22T13:25:46.225Z,0.70
2022-12-22T13:30:51.337Z,0.55
2022-12-22T13:35:58.534Z,0.47
2022-12-22T13:41:01.899Z,0.63
2022-12-22T13:46:04.404Z,1.10
2022-12-22T13:51:09.069Z,0.50
2022-12-22T13:56:15.020Z,0.63
2022-12-22T14:01:20.239Z,0.60
2022-12-22T14:06:26.279Z,0.75
2022-12-22T14:11:27.025Z,0.47
2022-12-22T14:16:29.102Z,0.50
2022-12-22T14:21:29.989Z,0.70
2022-12-22T14:26:31.266Z,1.20
2022-12-22T14:31:33.365Z,1.63
2022-12-22T14:36:40.842Z,0.90
2022-12-22T14:41:51.633Z,0.80
2022-12-22T14:47:17.465Z,0.80
2022-12-22T14:52:27.760Z,0.82
2022-12-22T14:57:36.339Z,0.98
2022-12-22T15:02:50.871Z,0.50
2022-12-22T15:08:05.301Z,0.63
2022-12-22T15:13:13.118Z,0.50
2022-12-22T15:18:16.679Z,0.82
2022-12-22T15:23:17.651Z,1.00
2022-12-22T15:28:18.335Z,0.52
2022-12-22T15:33:21.016Z,0.75
2022-12-22T15:38:23.871Z,1.05
2022-12-22T15:48:47.484Z,1.00
2022-12-22T15:53:48.239Z,0.75
2022-12-22T15:58:49.943Z,0.80
2022-12-22T16:03:52.129Z,0.82
2022-12-22T16:08:54.620Z,0.60
2022-12-22T16:13:55.403Z,1.08
2022-12-22T16:18:57.499Z,1.25
2022-12-22T16:23:58.710Z,0.90
2022-12-22T16:29:00.009Z,1.00
2022-12-22T16:34:02.005Z,1.13
2022-12-22T16:39:02.718Z,1.17
2022-12-22T16:44:08.135Z,1.58
2022-12-22T16:49:10.459Z,2.28
2022-12-22T16:54:14.755Z,2.72
2022-12-22T16:59:16.729Z,3.30
2022-12-22T17:04:22.797Z,4.72
2022-12-22T17:09:29.471Z,5.13
2022-12-22T17:14:32.956Z,7.15
2022-12-22T17:19:34.954Z,7.85
2022-12-22T17:24:35.688Z,8.23
2022-12-22T17:29:37.380Z,8.13
2022-12-22T17:34:39.452Z,8.15
2022-12-22T17:39:40.455Z,9.23
2022-12-22T17:44:41.154Z,10.07
2022-12-22T17:49:44.564Z,9.68
2022-12-22T17:54:46.310Z,9.85
2022-12-22T17:59:47.323Z,14.10
2022-12-22T18:04:50.398Z,12.05
2022-12-22T18:09:53.104Z,9.43
2022-12-22T18:14:54.063Z,8.85
2022-12-22T18:19:56.448Z,9.35
2022-12-22T18:24:58.444Z,8.88
2022-12-22T18:30:00.095Z,9.55
2022-12-22T18:35:02.250Z,9.10
2022-12-22T18:40:03.202Z,9.55
2022-12-22T18:45:04.087Z,9.32
2022-12-22T18:50:07.465Z,9.68
2022-12-22T18:55:15.803Z,9.73
2022-12-22T19:00:29.205Z,10.35
2022-12-22T19:05:34.364Z,9.63
2022-12-22T19:10:38.295Z,10.82
2022-12-22T19:15:39.681Z,10.48
2022-12-22T19:20:41.855Z,9.70
2022-12-22T19:25:45.617Z,10.30
2022-12-22T19:30:46.329Z,10.27
2022-12-22T19:35:48.393Z,11.80
2022-12-22T19:40:51.746Z,10.43
2022-12-22T19:45:54.065Z,10.85
2022-12-22T19:50:56.418Z,9.90
2022-12-22T19:55:58.289Z,10.60
2022-12-22T20:00:59.604Z,11.15
2022-12-22T20:06:01.648Z,11.57
2022-12-22T20:11:02.671Z,11.55
2022-12-22T20:16:04.969Z,10.63
2022-12-22T20:21:11.485Z,12.43
2022-12-22T20:26:17.293Z,14.07
2022-12-22T20:31:20.489Z,12.85
2022-12-22T20:36:26.332Z,14.98
2022-12-22T20:41:28.143Z,14.07
2022-12-22T20:46:30.319Z,13.95
2022-12-22T20:51:34.578Z,13.07
2022-12-22T20:56:39.312Z,14.65
2022-12-22T21:01:40.085Z,14.48
2022-12-22T21:06:46.862Z,13.70
2022-12-22T21:11:47.901Z,14.38
2022-12-22T21:16:49.798Z,14.05
2022-12-22T21:21:51.868Z,14.52
2022-12-22T21:26:54.341Z,15.63
2022-12-22T21:31:55.296Z,13.82
2022-12-22T21:37:02.412Z,15.25
2022-12-22T21:42:04.499Z,15.25
2022-12-22T21:47:05.687Z,15.82
2022-12-22T21:52:07.826Z,16.00
2022-12-22T21:57:13.825Z,16.35
2022-12-22T22:02:17.262Z,14.88
2022-12-22T22:07:19.370Z,14.00
2022-12-22T22:12:37.156Z,16.92
2022-12-22T22:17:38.333Z,15.00
2022-12-22T22:22:40.318Z,14.68
2022-12-22T22:27:47.510Z,16.40
2022-12-22T22:32:49.462Z,15.45
2022-12-22T22:37:51.833Z,15.48
2022-12-22T22:42:52.555Z,17.42
2022-12-22T22:47:54.103Z,15.25
2022-12-22T22:52:56.126Z,16.23
2022-12-22T22:57:56.761Z,14.20
2022-12-22T23:02:57.779Z,15.68
2022-12-22T23:08:01.393Z,14.20
2022-12-22T23:13:02.045Z,13.50
2022-12-22T23:18:02.715Z,12.63
2022-12-22T23:23:04.699Z,12.25
2022-12-22T23:28:05.815Z,12.23
2022-12-22T23:33:06.495Z,11.00
2022-12-22T23:38:10.595Z,12.38
2022-12-22T23:43:12.744Z,10.43
2022-12-22T23:48:13.420Z,9.85
2022-12-22T23:53:15.642Z,10.50
2022-12-22T23:58:17.633Z,9.65
